Tipler, Wisconsin
Current Conditions -  °F | °C
As of 6:15 PM on Wednesday 22 Oct 2014 (Local Time) from KEGV Reporting Station
Clear Clear  
Wind Chill: 45°   Ceiling: Unl
Heat Index: 47°   Visibility: 10mi
Dew Point: 25°   Wind: 5mph
Humidity: 42%   Direction: 170°S
Pressure: 30.18"   Gusts: NA
Location:  45.9186°N, 88.7601°W
Report Text: KEGV 222315Z AUTO 17004KT 10SM CLR 09/M04 A3018 RMK AO2 T00851038
Loading
Personal Weather Stations






























Interactive Weather Map
Tropical Storm Tracking
New forecast layout! Learn more

10-Day Weather Forecast

Advertisements
Track Severe Weather on mobile